Time;durP1;ratioP1;P1;durP2;ratioP2;P2;SDS_P1;SDS_P2;PMS_P1;PMS_P2;Temp;Humidity;BMP_temperature;BMP_pressure;BME280_temperature;BME280_humidity;BME280_pressure;Samples;Min_cycle;Max_cycle;Signal;HPM_P1;HPM_P2
2024/04/23 00:02:01;;;;;;;;;;;5.00;99.90;;;5.72;61.90;101005.75;5510421;26;19933;-85
2024/04/23 00:04:27;;;;;;;;;;;5.00;99.90;;;5.71;62.29;101006.72;5528675;26;19927;-85
2024/04/23 00:06:56;;;;;;;;;;;5.00;99.90;;;5.69;61.91;101004.25;5528707;26;20395;-84
2024/04/23 00:09:23;;;;;;;;;;;5.00;99.90;;;5.69;61.95;100996.31;5529158;26;19927;-84
2024/04/23 00:11:55;;;;;;;;;;;5.00;99.90;;;5.67;61.97;100995.66;5530557;25;19935;-84
2024/04/23 00:14:21;;;;;;;;;;;5.00;99.90;;;5.67;61.94;101001.78;5528375;26;19931;-85
2024/04/23 00:16:59;;;;;;;;;;;5.00;99.90;;;5.63;62.03;100992.53;5498947;26;19928;-85
2024/04/23 00:19:25;;;;;;;;;;;4.90;99.90;;;5.60;62.09;100995.47;5491748;26;19935;-84
2024/04/23 00:21:55;;;;;;;;;;;4.90;99.90;;;5.61;62.04;101002.44;5492854;26;19928;-84
2024/04/23 00:24:21;;;;;;;;;;;4.90;99.90;;;5.57;61.98;100993.19;5492838;26;20004;-85
2024/04/23 00:26:59;;;;;;;;;;;4.90;99.90;;;5.55;62.06;100989.03;5494157;26;19928;-84
2024/04/23 00:29:25;;;;;;;;;;;4.80;99.90;;;5.53;62.26;100989.22;5492263;26;19932;-84
2024/04/23 00:31:54;;;;;;;;;;;4.80;99.90;;;5.52;62.24;100995.50;5493415;26;19996;-84
2024/04/23 00:34:21;;;;;;;;;;;4.80;99.90;;;5.48;62.25;100991.53;5497944;26;19928;-84
2024/04/23 00:36:54;;;;;;;;;;;4.80;99.90;;;5.49;62.33;100990.53;5527487;26;19938;-84
2024/04/23 00:39:20;;;;;;;;;;;4.80;99.90;;;5.46;62.42;100990.84;5529914;26;20395;-84
2024/04/23 00:41:49;;;;;;;;;;;4.80;99.90;;;5.47;62.23;100984.59;5530076;26;19931;-84
2024/04/23 00:44:18;;;;;;;;;;;4.80;99.90;;;5.43;62.50;100980.63;5520820;26;19932;-84
2024/04/23 00:46:47;;;;;;;;;;;4.70;99.90;;;5.41;62.62;100985.22;5490972;26;19943;-84
2024/04/23 00:49:15;;;;;;;;;;;4.70;99.90;;;5.39;62.56;100985.41;5490640;26;19940;-84
2024/04/23 00:51:46;;;;;;;;;;;4.70;99.90;;;5.42;62.16;100979.78;5491219;26;19927;-84
2024/04/23 00:54:14;;;;;;;;;;;4.70;99.90;;;5.44;61.84;100976.97;5491177;26;19928;-85
2024/04/23 00:56:43;;;;;;;;;;;4.70;99.90;;;5.40;62.14;100975.66;5490593;26;19935;-84
2024/04/23 00:59:11;;;;;;;;;;;4.90;99.90;;;5.37;62.21;100976.81;5490652;26;19930;-84
2024/04/23 01:01:44;;;;;;;;;;;4.70;99.90;;;5.34;62.44;100976.31;5493729;26;20344;-85
2024/04/23 01:04:10;;;;;;;;;;;4.60;99.90;;;5.35;62.17;100980.59;5529316;26;20371;-85
2024/04/23 01:06:39;;;;;;;;;;;4.70;99.90;;;5.33;62.37;100982.59;5527421;26;20362;-84
2024/04/23 01:09:06;;;;;;;;;;;4.70;99.90;;;5.28;62.87;100976.97;5514658;26;19935;-84
2024/04/23 01:11:35;;;;;;;;;;;4.60;99.90;;;5.28;62.59;100987.56;5492299;26;19955;-84
2024/04/23 01:14:01;;;;;;;;;;;4.60;99.90;;;5.27;62.48;100983.22;5492078;26;20371;-84
2024/04/23 01:16:33;;;;;;;;;;;4.60;99.90;;;5.25;62.44;100972.00;5492457;26;19960;-84
2024/04/23 01:19:03;;;;;;;;;;;4.50;99.90;;;5.21;62.40;100981.25;5491747;26;19928;-84
2024/04/23 01:21:38;;;;;;;;;;;4.50;99.90;;;5.21;62.30;100974.16;5490447;26;19932;-84
2024/04/23 01:24:11;;;;;;;;;;;4.50;99.90;;;5.17;62.48;100980.75;5490276;26;19940;-84
2024/04/23 01:26:44;;;;;;;;;;;4.50;99.90;;;5.19;62.27;100978.78;5491642;26;19928;-84
2024/04/23 01:29:11;;;;;;;;;;;4.50;99.90;;;5.17;62.03;100986.03;5490894;26;19927;-85
2024/04/23 01:31:41;;;;;;;;;;;4.40;99.90;;;5.13;62.48;100974.97;5490927;26;19928;-84
2024/04/23 01:34:07;;;;;;;;;;;4.40;99.90;;;5.09;62.54;100978.09;5503036;26;19955;-84
2024/04/23 01:36:36;;;;;;;;;;;4.40;99.90;;;5.06;62.57;100971.31;5530474;26;19928;-85
2024/04/23 01:39:02;;;;;;;;;;;4.50;99.90;;;5.05;62.12;100977.59;5528301;26;19928;-84
2024/04/23 01:41:31;;;;;;;;;;;4.30;99.90;;;5.03;62.11;100973.47;5530006;26;19935;-84
2024/04/23 01:44:01;;;;;;;;;;;4.30;99.90;;;5.02;62.18;100983.19;5527594;26;19927;-84
2024/04/23 01:46:30;;;;;;;;;;;4.30;99.90;;;5.02;62.47;100979.72;5529618;25;19928;-84
2024/04/23 01:48:56;;;;;;;;;;;4.30;99.90;;;4.99;62.38;100972.97;5519544;26;20367;-84
2024/04/23 01:51:25;;;;;;;;;;;4.40;99.90;;;4.96;62.21;100968.00;5529494;25;19934;-84
2024/04/23 01:53:52;;;;;;;;;;;4.30;99.90;;;4.98;62.18;100970.47;5529371;25;19928;-84
2024/04/23 01:56:20;;;;;;;;;;;4.20;99.90;;;4.91;62.42;100972.94;5528086;26;19927;-84
2024/04/23 01:58:47;;;;;;;;;;;4.20;99.90;;;4.87;62.61;100964.50;5527907;26;19940;-84
2024/04/23 02:01:19;;;;;;;;;;;4.20;99.90;;;4.88;62.07;100952.97;5521199;25;20403;-84
2024/04/23 02:03:46;;;;;;;;;;;4.10;99.90;;;4.88;62.13;100952.97;5528656;26;19999;-84
2024/04/23 02:06:15;;;;;;;;;;;4.20;99.90;;;4.85;62.09;100955.91;5528100;26;19935;-84
2024/04/23 02:08:41;;;;;;;;;;;4.10;99.90;;;4.81;62.54;100949.31;5529385;25;19927;-84
2024/04/23 02:11:11;;;;;;;;;;;4.10;99.90;;;4.79;62.51;100950.47;5527377;26;19927;-85
2024/04/23 02:13:37;;;;;;;;;;;4.10;99.90;;;4.79;62.79;100955.75;5528341;25;20266;-84
2024/04/23 02:16:06;;;;;;;;;;;4.10;99.90;;;4.79;62.70;100958.41;5513837;26;20367;-84
2024/04/23 02:18:35;;;;;;;;;;;4.10;99.90;;;4.79;62.15;100950.47;5491736;26;19936;-84
2024/04/23 02:21:04;;;;;;;;;;;4.10;99.90;;;4.76;62.15;100948.13;5491861;26;19995;-84
2024/04/23 02:23:30;;;;;;;;;;;4.00;99.90;;;4.77;62.15;100950.59;5489881;26;19939;-84
2024/04/23 02:25:59;;;;;;;;;;;4.10;99.90;;;4.77;61.79;100952.44;5489939;26;19927;-85
2024/04/23 02:28:25;;;;;;;;;;;4.20;99.90;;;4.74;62.24;100931.63;5492337;26;19928;-84
2024/04/23 02:30:54;;;;;;;;;;;4.10;99.90;;;4.72;62.03;100949.44;5510214;26;19931;-84
2024/04/23 02:33:20;;;;;;;;;;;4.00;99.90;;;4.68;62.47;100948.09;5526336;26;19935;-84
2024/04/23 02:35:52;;;;;;;;;;;3.90;99.90;;;4.62;62.66;100946.94;5526562;26;19935;-84
2024/04/23 02:38:18;;;;;;;;;;;3.90;99.90;;;4.63;62.26;100943.28;5526949;26;19939;-84
2024/04/23 02:40:48;;;;;;;;;;;3.90;99.90;;;4.65;62.00;100944.81;5527317;26;19972;-84
2024/04/23 02:43:14;;;;;;;;;;;3.90;99.90;;;4.68;62.13;100946.28;5497030;26;19934;-84
2024/04/23 02:45:43;;;;;;;;;;;3.90;99.90;;;4.62;62.23;100937.19;5505466;25;19928;-84
2024/04/23 02:48:09;;;;;;;;;;;3.90;99.90;;;4.61;62.06;100940.81;5489888;26;19928;-84
2024/04/23 02:50:38;;;;;;;;;;;3.80;99.90;;;4.54;62.26;100936.34;5489340;26;20000;-84
2024/04/23 02:53:07;;;;;;;;;;;3.80;99.90;;;4.49;62.38;100938.63;5491241;26;19928;-84
2024/04/23 02:55:36;;;;;;;;;;;3.80;99.90;;;4.45;62.55;100935.50;5489245;26;19928;-84
2024/04/23 02:58:02;;;;;;;;;;;3.70;99.90;;;4.42;62.82;100930.53;5488862;26;19928;-84
2024/04/23 03:00:31;;;;;;;;;;;3.70;99.90;;;4.45;62.53;100932.03;5515886;26;19927;-84
2024/04/23 03:02:57;;;;;;;;;;;3.80;99.90;;;4.49;62.09;100923.63;5502065;26;20363;-84
2024/04/23 03:05:26;;;;;;;;;;;3.80;99.90;;;4.49;62.18;100936.84;5488075;26;19928;-84
2024/04/23 03:07:53;;;;;;;;;;;3.80;99.90;;;4.46;62.19;100926.59;5488876;26;20309;-83
2024/04/23 03:10:24;;;;;;;;;;;3.80;99.90;;;4.44;62.25;100930.38;5489657;26;19960;-84
2024/04/23 03:12:50;;;;;;;;;;;3.80;99.90;;;4.45;62.19;100924.13;5491238;26;19962;-84
2024/04/23 03:15:19;;;;;;;;;;;3.70;99.90;;;4.47;62.12;100930.06;5498554;26;19927;-84
2024/04/23 03:17:45;;;;;;;;;;;3.70;99.90;;;4.44;62.17;100925.94;5528937;25;19927;-85
2024/04/23 03:20:14;;;;;;;;;;;3.70;99.90;;;4.42;62.30;100927.88;5526162;26;19939;-85
2024/04/23 03:22:40;;;;;;;;;;;3.70;99.90;;;4.35;62.45;100922.44;5526544;26;20395;-84
2024/04/23 03:25:09;;;;;;;;;;;3.70;99.90;;;4.30;62.53;100919.44;5530992;26;19927;-84
2024/04/23 03:27:38;;;;;;;;;;;3.70;99.90;;;4.28;62.57;100925.84;5530591;26;20313;-84
2024/04/23 03:30:08;;;;;;;;;;;3.60;99.90;;;4.21;62.90;100930.94;5531309;26;19935;-84
2024/04/23 03:32:34;;;;;;;;;;;3.60;99.90;;;4.20;62.73;100929.31;5529711;26;19934;-84
2024/04/23 03:35:03;;;;;;;;;;;3.50;99.90;;;4.22;62.80;100918.56;5526671;26;20667;-84
2024/04/23 03:37:32;;;;;;;;;;;3.60;99.90;;;4.19;62.70;100930.25;5531527;25;19928;-84
2024/04/23 03:40:01;;;;;;;;;;;3.50;99.90;;;4.17;62.80;100923.50;5497667;26;19928;-84
2024/04/23 03:42:30;;;;;;;;;;;3.50;99.90;;;4.18;62.71;100930.44;5494686;26;19928;-84
2024/04/23 03:45:02;;;;;;;;;;;3.50;99.90;;;4.18;62.56;100920.69;5493831;26;20362;-84
2024/04/23 03:47:31;;;;;;;;;;;3.50;99.90;;;4.18;62.66;100925.16;5495277;26;19928;-84
2024/04/23 03:49:58;;;;;;;;;;;3.50;99.90;;;4.17;62.37;100926.97;5493382;26;19940;-84
2024/04/23 03:52:27;;;;;;;;;;;3.40;99.90;;;4.13;62.57;100920.34;5493096;26;19928;-84
2024/04/23 03:54:53;;;;;;;;;;;3.40;99.90;;;4.14;62.59;100920.19;5493432;26;19928;-84
2024/04/23 03:57:23;;;;;;;;;;;3.40;99.90;;;4.14;61.93;100925.47;5494929;26;19928;-86
2024/04/23 03:59:49;;;;;;;;;;;3.40;99.90;;;4.14;62.26;100920.19;5496004;26;19934;-84
2024/04/23 04:07:51;;;;;;;;;;;3.40;99.90;;;4.17;61.85;100926.97;5532898;26;19928;-84
2024/04/23 04:10:20;;;;;;;;;;;3.40;99.90;;;4.10;62.25;100928.59;5530779;26;19927;-84
2024/04/23 04:12:49;;;;;;;;;;;3.40;99.90;;;4.07;62.18;100929.72;5531197;26;20398;-84
2024/04/23 04:15:18;;;;;;;;;;;3.40;99.90;;;4.05;62.18;100929.06;5527300;26;20336;-84
2024/04/23 04:17:47;;;;;;;;;;;3.30;99.90;;;4.07;61.88;100919.16;5522741;26;20419;-85
2024/04/23 04:20:23;;;;;;;;;;;3.40;99.90;;;4.08;62.00;100914.72;5518732;26;20292;-86
2024/04/23 04:22:52;;;;;;;;;;;3.30;99.90;;;4.09;61.94;100917.19;5405746;26;20264;-86
2024/04/23 04:25:18;;;;;;;;;;;3.30;99.90;;;4.10;61.98;100912.75;5491734;26;19935;-86
2024/04/23 04:27:47;;;;;;;;;;;3.50;99.90;;;4.10;61.74;100918.88;5492722;26;19956;-85
2024/04/23 04:30:13;;;;;;;;;;;3.40;99.90;;;4.08;61.88;100914.72;5496916;26;19928;-85
2024/04/23 04:32:42;;;;;;;;;;;3.40;99.90;;;4.04;62.07;100916.84;5496082;26;19935;-84
2024/04/23 04:35:13;;;;;;;;;;;3.30;99.90;;;4.05;62.07;100910.59;5494753;26;20264;-84
2024/04/23 04:37:42;;;;;;;;;;;3.40;99.90;;;4.02;62.39;100905.63;5499769;26;19935;-85
2024/04/23 04:40:08;;;;;;;;;;;3.30;99.90;;;3.99;62.48;100916.47;5532867;26;19928;-84
2024/04/23 04:42:38;;;;;;;;;;;3.30;99.90;;;4.01;62.33;100921.63;5532231;25;20017;-84
2024/04/23 04:45:04;;;;;;;;;;;3.40;99.90;;;4.02;62.75;100920.63;5531576;25;19927;-84
2024/04/23 04:47:33;;;;;;;;;;;3.40;99.90;;;4.01;62.76;100919.81;5531304;26;20346;-84
2024/04/23 04:49:59;;;;;;;;;;;3.40;99.90;;;4.05;62.64;100936.13;5533312;26;20378;-84
2024/04/23 04:52:30;;;;;;;;;;;3.40;99.90;;;4.06;62.78;100933.34;5523562;25;19964;-84
2024/04/23 04:54:57;;;;;;;;;;;3.40;99.90;;;4.08;62.79;100925.28;5493530;26;20279;-85
2024/04/23 04:57:25;;;;;;;;;;;3.40;99.90;;;4.16;62.79;100929.78;5495520;26;19934;-84
2024/04/23 04:59:52;;;;;;;;;;;3.50;99.90;;;4.21;62.92;100930.13;5496798;26;19948;-84
2024/04/23 05:02:20;;;;;;;;;;;3.60;99.90;;;4.23;62.89;100917.59;5495131;26;19928;-83
2024/04/23 05:04:47;;;;;;;;;;;3.60;99.90;;;4.28;62.74;100928.50;5495554;26;20015;-83
2024/04/23 05:07:15;;;;;;;;;;;3.70;99.90;;;4.33;62.58;100924.38;5495098;26;19996;-81
2024/04/23 05:09:44;;;;;;;;;;;3.90;99.90;;;4.42;62.96;100927.88;5495268;26;20395;-81
2024/04/23 05:12:13;;;;;;;;;;;4.10;99.90;;;4.49;63.24;100926.28;5494516;26;20398;-81
2024/04/23 05:14:39;;;;;;;;;;;4.40;99.90;;;4.55;62.95;100925.63;5515512;26;19996;-82
2024/04/23 05:17:08;;;;;;;;;;;4.80;99.90;;;4.60;62.60;100928.63;5528797;26;19931;-82
2024/04/23 05:19:34;;;;;;;;;;;5.20;99.90;;;4.64;63.43;100932.59;5502006;26;19940;-82
2024/04/23 05:22:03;;;;;;;;;;;5.20;99.90;;;4.73;62.99;100932.59;5515934;26;19934;-81
2024/04/23 05:24:29;;;;;;;;;;;4.80;99.90;;;4.80;63.18;100931.78;5531137;26;19927;-81
2024/04/23 05:27:01;;;;;;;;;;;4.70;99.90;;;4.84;62.96;100924.38;5528568;26;19934;-82
2024/04/23 05:29:28;;;;;;;;;;;4.60;99.90;;;4.86;63.57;100925.03;5532040;25;19967;-81
2024/04/23 05:34:41;;;;;;;;;;;4.60;99.90;;;4.93;63.86;100922.56;5503024;26;20387;-85
2024/04/23 05:37:10;;;;;;;;;;;4.70;99.90;;;5.00;63.80;100924.41;5504522;26;19939;-86
2024/04/23 05:39:39;;;;;;;;;;;4.80;99.90;;;5.08;64.12;100932.34;5493616;26;19928;-86
2024/04/23 05:42:10;;;;;;;;;;;5.00;99.90;;;5.07;64.29;100922.72;5491621;26;19928;-87
2024/04/23 05:44:39;;;;;;;;;;;5.00;99.90;;;5.09;64.52;100927.88;5494102;26;20439;-86
2024/04/23 05:47:08;;;;;;;;;;;5.00;99.90;;;5.07;64.35;100929.84;5515859;26;19939;-87
2024/04/23 05:50:14;;;;;;;;;;;4.90;99.90;;;5.07;64.94;100930.66;5532036;26;20387;-83
2024/04/23 05:53:39;;;;;;;;;;;4.80;99.90;;;5.09;64.69;100933.16;5533898;26;19934;-84
2024/04/23 05:56:27;;;;;;;;;;;4.90;99.90;;;4.95;65.53;100929.34;5508624;26;19935;-85
2024/04/23 05:58:55;;;;;;;;;;;4.70;99.90;;;5.06;65.60;100929.03;5530247;26;20388;-83
2024/04/23 06:01:24;;;;;;;;;;;4.80;99.90;;;5.14;65.14;100934.31;5531220;26;19935;-85
2024/04/23 06:03:50;;;;;;;;;;;4.80;99.90;;;5.22;65.12;100938.81;5521872;26;19936;-85
2024/04/23 06:06:19;;;;;;;;;;;4.90;99.90;;;5.26;65.13;100932.16;5494137;26;20264;-85
2024/04/23 06:08:45;;;;;;;;;;;5.10;99.90;;;5.32;64.97;100942.09;5494451;26;19935;-84
2024/04/23 06:11:14;;;;;;;;;;;5.00;99.90;;;5.36;64.76;100935.47;5499685;26;20024;-86
2024/04/23 06:13:46;;;;;;;;;;;5.10;99.90;;;5.42;64.46;100926.06;5492972;26;19938;-85
2024/04/23 06:16:17;;;;;;;;;;;5.10;99.90;;;5.42;64.54;100928.72;5492335;26;19928;-85
2024/04/23 06:18:43;;;;;;;;;;;5.10;99.90;;;5.30;64.20;100930.03;5514832;26;19927;-84
2024/04/23 06:21:13;;;;;;;;;;;5.00;99.90;;;5.20;65.07;100930.19;5492299;26;19996;-85
2024/04/23 06:23:39;;;;;;;;;;;4.80;99.90;;;5.28;65.16;100929.38;5491772;26;19932;-85
2024/04/23 06:26:08;;;;;;;;;;;4.90;99.90;;;5.44;65.66;100929.38;5491732;26;19996;-85
2024/04/23 06:28:35;;;;;;;;;;;5.10;99.90;;;5.61;66.16;100930.16;5514829;26;20379;-85
2024/04/23 06:31:05;;;;;;;;;;;5.40;99.90;;;5.78;65.29;100931.81;5491043;26;19935;-88
2024/04/23 06:33:34;;;;;;;;;;;5.50;99.90;;;5.95;65.73;100924.66;5494442;26;19935;-86
2024/04/23 06:36:03;;;;;;;;;;;5.70;99.90;;;6.08;64.60;100924.97;5493529;26;19939;-86
2024/04/23 06:38:29;;;;;;;;;;;5.90;99.90;;;5.93;63.96;100924.03;5493727;26;19928;-86
2024/04/23 06:40:58;;;;;;;;;;;5.70;99.90;;;6.08;64.79;100932.09;5493399;26;20008;-86
2024/04/23 06:43:24;;;;;;;;;;;5.90;99.90;;;6.29;64.08;100926.22;5496876;26;19942;-83
2024/04/23 06:45:53;;;;;;;;;;;6.10;99.90;;;6.39;63.70;100922.38;5493136;26;19955;-84
2024/04/23 06:48:19;;;;;;;;;;;6.30;99.90;;;6.51;63.54;100917.50;5493745;26;19928;-84
2024/04/23 06:50:51;;;;;;;;;;;6.50;99.90;;;6.64;62.27;100912.47;5492633;26;19942;-84
2024/04/23 06:53:17;;;;;;;;;;;6.60;99.90;;;6.74;62.56;100917.56;5494717;26;19927;-84
2024/04/23 06:55:46;;;;;;;;;;;6.70;99.90;;;6.85;62.75;100913.69;5491904;26;19943;-84
2024/04/23 06:58:12;;;;;;;;;;;6.80;99.90;;;7.00;62.35;100917.22;5496265;26;20014;-86
2024/04/23 07:00:41;;;;;;;;;;;7.00;99.90;;;7.10;60.99;100917.81;5523386;26;19928;-84
2024/04/23 07:03:07;;;;;;;;;;;7.10;99.90;;;7.20;61.19;100915.72;5515758;25;19928;-85
2024/04/23 07:05:36;;;;;;;;;;;7.20;99.90;;;7.31;61.56;100909.16;5496958;26;19928;-85
2024/04/23 07:08:05;;;;;;;;;;;7.40;99.90;;;7.41;61.61;100903.59;5496341;26;19928;-85
2024/04/23 07:10:34;;;;;;;;;;;7.40;99.90;;;7.46;60.49;100909.19;5497308;26;19927;-85
2024/04/23 07:13:01;;;;;;;;;;;7.50;99.90;;;7.53;61.00;100918.09;5496802;26;19931;-85
2024/04/23 07:15:29;;;;;;;;;;;7.60;99.90;;;7.60;60.02;100912.91;5511804;26;19928;-82
2024/04/23 07:17:58;;;;;;;;;;;7.70;99.90;;;7.65;59.31;100908.69;5498913;26;20024;-85
2024/04/23 07:20:24;;;;;;;;;;;7.70;99.90;;;7.69;58.28;100909.16;5496755;26;19928;-85
2024/04/23 07:22:53;;;;;;;;;;;7.70;99.90;;;7.77;58.56;100910.91;5533244;26;19927;-85
2024/04/23 07:25:22;;;;;;;;;;;7.80;99.90;;;7.84;58.42;100914.47;5532636;26;19934;-85
2024/04/23 07:27:50;;;;;;;;;;;7.90;99.90;;;7.93;58.94;100903.59;5533013;26;19927;-84
2024/04/23 07:30:17;;;;;;;;;;;8.00;99.90;;;8.04;58.57;100904.13;5533182;26;19927;-85
2024/04/23 07:32:47;;;;;;;;;;;8.10;99.90;;;8.12;59.08;100901.38;5532690;26;19931;-84
2024/04/23 07:35:14;;;;;;;;;;;8.20;99.90;;;8.19;58.16;100903.09;5529986;26;19952;-84
2024/04/23 07:37:42;;;;;;;;;;;8.30;99.90;;;8.28;57.60;100901.19;5532589;26;19928;-85
2024/04/23 07:40:09;;;;;;;;;;;8.40;99.90;;;8.34;57.58;100894.28;5532878;26;19927;-84
2024/04/23 07:42:40;;;;;;;;;;;8.40;99.90;;;8.42;58.25;100889.72;5533042;25;19972;-85
2024/04/23 07:45:07;;;;;;;;;;;8.50;99.90;;;8.52;57.66;100889.44;5529213;26;20275;-85
2024/04/23 07:47:36;;;;;;;;;;;8.70;99.90;;;8.55;55.27;100893.56;5530821;26;19936;-85
2024/04/23 07:50:03;;;;;;;;;;;8.60;99.90;;;8.59;53.18;100895.66;5507470;26;19948;-84
2024/04/23 07:52:32;;;;;;;;;;;8.70;99.90;;;8.61;52.69;100892.81;5495728;26;19934;-85
2024/04/23 07:54:58;;;;;;;;;;;8.60;99.90;;;8.63;49.69;100896.91;5514236;26;19927;-84
2024/04/23 07:57:27;;;;;;;;;;;8.70;99.90;;;8.61;49.55;100876.88;5525228;25;19939;-84
2024/04/23 07:59:55;;;;;;;;;;;8.60;99.90;;;8.66;50.79;100882.44;5493473;26;20375;-85
2024/04/23 08:02:25;;;;;;;;;;;8.70;99.90;;;8.67;48.36;100879.59;5494044;26;19928;-84
2024/04/23 08:04:52;;;;;;;;;;;8.80;99.90;;;8.60;47.25;100885.84;5505850;26;19928;-84
2024/04/23 08:07:21;;;;;;;;;;;8.50;99.90;;;8.60;46.38;100884.03;5526276;26;20271;-86
2024/04/23 08:09:47;;;;;;;;;;;8.60;99.90;;;8.76;47.52;100880.28;5528798;26;19934;-85
2024/04/23 08:12:16;;;;;;;;;;;8.80;99.90;;;8.76;46.14;100867.81;5529404;26;19928;-85
2024/04/23 08:14:42;;;;;;;;;;;8.80;99.90;;;8.82;45.86;100876.88;5530821;25;20367;-85
2024/04/23 08:17:13;;;;;;;;;;;8.80;99.90;;;8.87;47.36;100877.13;5528721;26;19927;-85
2024/04/23 08:19:40;;;;;;;;;;;8.90;99.90;;;8.97;46.17;100877.63;5529313;26;19931;-85
2024/04/23 08:22:08;;;;;;;;;;;9.00;99.90;;;9.00;44.92;100873.78;5529943;25;19955;-84
2024/04/23 08:24:37;;;;;;;;;;;9.00;99.90;;;8.97;46.22;100872.31;5529391;26;20314;-85
2024/04/23 08:27:04;;;;;;;;;;;9.00;99.90;;;8.95;44.63;100868.19;5530547;25;19927;-85
2024/04/23 08:29:33;;;;;;;;;;;9.00;99.90;;;9.06;46.02;100867.69;5530063;25;19927;-85
2024/04/23 08:31:59;;;;;;;;;;;9.10;99.90;;;9.17;47.35;100863.66;5530299;25;19935;-84
2024/04/23 08:34:30;;;;;;;;;;;9.20;99.90;;;9.26;45.80;100860.69;5530267;25;19927;-85
2024/04/23 08:36:56;;;;;;;;;;;9.40;99.90;;;9.29;43.94;100868.28;5514708;26;19928;-85
2024/04/23 08:39:25;;;;;;;;;;;9.50;99.90;;;9.18;41.07;100860.84;5495782;26;19935;-84
2024/04/23 08:41:52;;;;;;;;;;;9.30;99.90;;;9.10;41.43;100854.81;5493489;26;19935;-85
2024/04/23 08:44:25;;;;;;;;;;;9.20;99.90;;;9.13;42.56;100851.78;5493217;26;19932;-85
2024/04/23 08:46:51;;;;;;;;;;;9.30;99.90;;;9.18;41.60;100852.84;5493237;26;19936;-85
2024/04/23 08:49:20;;;;;;;;;;;9.30;99.90;;;9.18;40.21;100846.72;5495582;26;19956;-85
2024/04/23 08:51:49;;;;;;;;;;;9.30;97.20;;;9.16;42.31;100849.53;5512206;26;20380;-85
2024/04/23 08:54:18;;;;;;;;;;;9.30;99.90;;;9.25;41.53;100845.72;5530206;25;20002;-85
2024/04/23 08:56:45;;;;;;;;;;;9.40;98.60;;;9.28;41.54;100849.88;5529922;26;19928;-85
2024/04/23 08:59:16;;;;;;;;;;;9.40;97.70;;;9.11;42.36;100849.31;5529884;26;20328;-85
2024/04/23 09:01:45;;;;;;;;;;;9.30;99.70;;;9.03;43.10;100842.28;5527719;26;20371;-85
2024/04/23 09:04:15;;;;;;;;;;;9.10;99.90;;;8.96;42.19;100836.09;5530393;25;19932;-85
2024/04/23 09:06:42;;;;;;;;;;;9.10;99.30;;;9.00;43.70;100839.19;5517225;26;19943;-85
2024/04/23 09:09:15;;;;;;;;;;;9.10;99.90;;;9.09;42.49;100834.56;5529379;26;19938;-85
2024/04/23 09:11:42;;;;;;;;;;;9.30;98.90;;;9.20;43.81;100829.53;5530103;26;19927;-85
2024/04/23 09:14:12;;;;;;;;;;;9.40;99.90;;;9.33;41.33;100826.16;5529727;26;19972;-85
2024/04/23 09:16:38;;;;;;;;;;;9.60;95.80;;;9.37;42.21;100831.88;5530552;25;20387;-85
2024/04/23 09:19:08;;;;;;;;;;;9.60;98.10;;;9.38;41.05;100818.41;5530386;26;19927;-85
2024/04/23 09:21:34;;;;;;;;;;;9.70;94.70;;;9.49;41.75;100823.19;5523539;26;19999;-85
2024/04/23 09:24:03;;;;;;;;;;;9.80;96.40;;;9.54;41.40;100818.09;5503523;26;19927;-85
2024/04/23 09:26:32;;;;;;;;;;;9.90;95.30;;;9.64;41.88;100817.72;5530199;26;19939;-85
2024/04/23 09:29:02;;;;;;;;;;;9.90;95.90;;;9.75;42.54;100819.84;5529283;26;19951;-85
2024/04/23 09:31:35;;;;;;;;;;;10.10;97.20;;;9.83;42.84;100808.19;5521496;26;20017;-85
2024/04/23 09:34:04;;;;;;;;;;;10.20;96.60;;;9.91;42.63;100807.22;5529215;25;19954;-85
2024/04/23 09:36:32;;;;;;;;;;;10.30;96.10;;;10.03;41.82;100805.63;5498665;25;19964;-85
2024/04/23 09:39:02;;;;;;;;;;;10.40;94.50;;;10.06;40.08;100800.72;5506498;26;19971;-85
2024/04/23 09:41:31;;;;;;;;;;;10.50;90.80;;;10.05;39.44;100793.75;5510705;26;20422;-85
2024/04/23 09:44:04;;;;;;;;;;;10.50;89.10;;;9.99;41.01;100801.72;5492557;26;19935;-85
2024/04/23 09:46:31;;;;;;;;;;;10.40;90.80;;;10.03;41.56;100790.44;5524808;26;19931;-85
2024/04/23 09:49:01;;;;;;;;;;;10.40;92.70;;;9.99;40.22;100785.72;5529223;25;19943;-85
2024/04/23 09:51:32;;;;;;;;;;;10.30;88.90;;;10.00;40.72;100790.03;5527413;26;19935;-85
2024/04/23 09:53:59;;;;;;;;;;;10.30;90.20;;;10.02;40.55;100785.34;5529146;26;19990;-85
2024/04/23 09:56:28;;;;;;;;;;;10.30;89.50;;;10.05;43.64;100785.75;5529387;26;19996;-85
2024/04/23 09:58:54;;;;;;;;;;;10.40;94.20;;;10.06;41.17;100778.59;5515371;26;19928;-85
2024/04/23 10:01:27;;;;;;;;;;;10.40;90.80;;;10.20;43.33;100780.28;5516399;26;20390;-85
2024/04/23 10:03:55;;;;;;;;;;;10.60;94.70;;;10.24;40.04;100770.03;5529163;25;20382;-85
2024/04/23 10:06:26;;;;;;;;;;;10.60;88.30;;;10.27;41.19;100770.47;5525010;25;19931;-85
2024/04/23 10:09:00;;;;;;;;;;;10.60;89.50;;;10.23;39.64;100771.03;5529053;26;20374;-85
2024/04/23 10:11:34;;;;;;;;;;;10.60;87.10;;;10.11;40.44;100762.00;5529359;25;19999;-85
2024/04/23 10:14:06;;;;;;;;;;;10.40;88.10;;;9.98;39.93;100760.09;5528541;26;19934;-84
2024/04/23 10:16:50;;;;;;;;;;;10.30;86.70;;;9.92;40.53;100758.25;5528461;26;19927;-85
2024/04/23 10:19:16;;;;;;;;;;;10.10;88.00;;;9.85;40.81;100755.53;5500775;26;19928;-86
2024/04/23 10:21:46;;;;;;;;;;;10.10;88.30;;;9.85;39.79;100744.06;5516321;26;19954;-87
2024/04/23 10:24:13;;;;;;;;;;;10.00;86.00;;;9.85;40.83;100749.38;5524298;26;19934;-87
2024/04/23 10:26:44;;;;;;;;;;;10.00;88.50;;;9.71;39.54;100741.38;5527961;26;20395;-86
2024/04/23 10:29:12;;;;;;;;;;;10.00;85.30;;;9.63;40.72;100735.38;5527976;25;19943;-86
2024/04/23 10:31:44;;;;;;;;;;;9.80;87.70;;;9.57;42.21;100745.00;5527030;26;19927;-83
2024/04/23 10:34:15;;;;;;;;;;;9.70;90.60;;;9.49;38.85;100737.97;5495494;26;20021;-86
2024/04/23 10:36:47;;;;;;;;;;;9.60;83.50;;;9.49;38.48;100745.97;5505259;26;19935;-85
2024/04/23 10:39:14;;;;;;;;;;;9.50;83.10;;;9.52;40.73;100744.75;5497290;26;20379;-86
2024/04/23 10:41:43;;;;;;;;;;;9.60;87.50;;;9.47;39.77;100739.22;5497112;26;19952;-85
2024/04/23 10:44:11;;;;;;;;;;;9.50;85.30;;;9.49;40.40;100740.63;5498692;26;19935;-86
2024/04/23 10:46:40;;;;;;;;;;;9.50;86.30;;;9.47;39.69;100737.38;5495784;26;19967;-85
2024/04/23 10:49:15;;;;;;;;;;;9.50;85.70;;;9.46;40.05;100734.88;5494504;26;19935;-85
2024/04/23 10:51:46;;;;;;;;;;;9.50;86.00;;;9.42;38.65;100725.63;5496141;26;19936;-86
2024/04/23 10:54:12;;;;;;;;;;;9.50;82.80;;;9.38;38.20;100721.75;5495737;26;19996;-86
2024/04/23 10:56:41;;;;;;;;;;;9.50;83.10;;;9.35;40.64;100717.63;5496793;26;20082;-86
2024/04/23 10:59:11;;;;;;;;;;;9.50;85.30;;;9.37;40.26;100715.63;5517728;26;19928;-86
2024/04/23 11:01:49;;;;;;;;;;;9.50;85.90;;;9.45;38.97;100704.78;5532526;25;19927;-86
2024/04/23 11:04:26;;;;;;;;;;;9.60;83.20;;;9.58;39.22;100705.88;5532665;26;19972;-86
2024/04/23 11:07:03;;;;;;;;;;;9.70;83.90;;;9.62;39.39;100704.47;5522704;25;19935;-85
2024/04/23 11:09:34;;;;;;;;;;;9.70;83.80;;;9.61;38.63;100698.28;5497476;26;19940;-85
2024/04/23 11:12:02;;;;;;;;;;;9.70;82.60;;;9.59;39.43;100695.00;5498134;26;19939;-85
2024/04/23 11:14:33;;;;;;;;;;;9.70;83.90;;;9.54;40.21;100694.78;5496147;26;20375;-86
2024/04/23 11:17:03;;;;;;;;;;;9.70;85.30;;;9.55;39.25;100688.44;5493963;26;19928;-87
2024/04/23 11:19:39;;;;;;;;;;;9.60;83.10;;;9.55;38.35;100680.44;5493905;26;20274;-87
2024/04/23 11:22:10;;;;;;;;;;;9.60;80.20;;;9.60;38.06;100685.19;5511398;26;19935;-87
2024/04/23 11:24:43;;;;;;;;;;;9.70;81.20;;;9.64;41.59;100670.44;5530525;26;19934;-87
2024/04/23 11:27:12;;;;;;;;;;;9.80;87.30;;;9.67;42.25;100681.53;5530011;26;19958;-87
2024/04/23 11:29:40;;;;;;;;;;;9.80;88.80;;;9.71;42.65;100674.78;5530594;25;19935;-87
2024/04/23 11:32:09;;;;;;;;;;;9.90;89.50;;;9.72;41.09;100676.44;5530760;26;20375;-87
2024/04/23 11:34:39;;;;;;;;;;;9.90;85.90;;;9.72;40.17;100675.59;5530636;26;19927;-87
2024/04/23 11:37:08;;;;;;;;;;;9.90;84.90;;;9.67;40.62;100668.22;5531210;26;19932;-87
2024/04/23 11:39:34;;;;;;;;;;;9.80;85.10;;;9.71;39.97;100668.63;5525286;26;20375;-86
2024/04/23 11:42:03;;;;;;;;;;;9.80;84.30;;;9.72;39.67;100656.97;5493721;26;19928;-87